sensor_id;sensor_type;location;lat;lon;timestamp;P1;durP1;ratioP1;P2;durP2;ratioP2
18544;SDS011;9402;51.460;7.276;2023-07-24T00:00:14;7.27;;;4.47;;
18544;SDS011;9402;51.460;7.276;2023-07-24T00:02:15;4.63;;;3.53;;
18544;SDS011;9402;51.460;7.276;2023-07-24T00:04:16;4.23;;;3.60;;
18544;SDS011;9402;51.460;7.276;2023-07-24T00:06:18;5.53;;;3.57;;
18544;SDS011;9402;51.460;7.276;2023-07-24T00:08:21;4.93;;;3.70;;
18544;SDS011;9402;51.460;7.276;2023-07-24T00:10:22;5.00;;;4.40;;
18544;SDS011;9402;51.460;7.276;2023-07-24T00:12:24;4.33;;;3.67;;
18544;SDS011;9402;51.460;7.276;2023-07-24T00:14:26;5.17;;;4.30;;
18544;SDS011;9402;51.460;7.276;2023-07-24T00:16:27;8.90;;;4.20;;
18544;SDS011;9402;51.460;7.276;2023-07-24T00:18:29;4.67;;;4.17;;
18544;SDS011;9402;51.460;7.276;2023-07-24T00:20:29;5.07;;;3.80;;
18544;SDS011;9402;51.460;7.276;2023-07-24T00:22:31;7.40;;;4.23;;
18544;SDS011;9402;51.460;7.276;2023-07-24T00:24:34;6.00;;;4.23;;
18544;SDS011;9402;51.460;7.276;2023-07-24T00:26:36;6.33;;;4.67;;
18544;SDS011;9402;51.460;7.276;2023-07-24T00:28:37;6.50;;;5.00;;
18544;SDS011;9402;51.460;7.276;2023-07-24T00:30:39;5.37;;;4.20;;
18544;SDS011;9402;51.460;7.276;2023-07-24T00:32:40;5.87;;;5.20;;
18544;SDS011;9402;51.460;7.276;2023-07-24T00:34:42;9.67;;;5.00;;
18544;SDS011;9402;51.460;7.276;2023-07-24T00:36:44;7.90;;;5.07;;
18544;SDS011;9402;51.460;7.276;2023-07-24T00:38:45;12.90;;;4.63;;
18544;SDS011;9402;51.460;7.276;2023-07-24T00:40:48;8.23;;;4.50;;
18544;SDS011;9402;51.460;7.276;2023-07-24T00:42:51;11.23;;;4.40;;
18544;SDS011;9402;51.460;7.276;2023-07-24T00:44:51;8.73;;;5.27;;
18544;SDS011;9402;51.460;7.276;2023-07-24T00:46:53;5.53;;;4.40;;
18544;SDS011;9402;51.460;7.276;2023-07-24T00:48:54;5.33;;;4.40;;
18544;SDS011;9402;51.460;7.276;2023-07-24T00:50:56;5.63;;;4.20;;
18544;SDS011;9402;51.460;7.276;2023-07-24T00:52:58;4.30;;;3.90;;
18544;SDS011;9402;51.460;7.276;2023-07-24T00:54:59;5.90;;;4.60;;
18544;SDS011;9402;51.460;7.276;2023-07-24T00:57:03;5.80;;;4.90;;
18544;SDS011;9402;51.460;7.276;2023-07-24T00:59:04;8.27;;;5.33;;
18544;SDS011;9402;51.460;7.276;2023-07-24T01:01:05;6.70;;;6.03;;
18544;SDS011;9402;51.460;7.276;2023-07-24T01:03:07;5.70;;;5.03;;
18544;SDS011;9402;51.460;7.276;2023-07-24T01:05:08;7.43;;;4.90;;
18544;SDS011;9402;51.460;7.276;2023-07-24T01:07:12;4.60;;;4.20;;
18544;SDS011;9402;51.460;7.276;2023-07-24T01:09:13;16.37;;;4.80;;
18544;SDS011;9402;51.460;7.276;2023-07-24T01:11:16;8.10;;;4.53;;
18544;SDS011;9402;51.460;7.276;2023-07-24T01:13:22;4.27;;;3.73;;
18544;SDS011;9402;51.460;7.276;2023-07-24T01:15:28;7.43;;;4.40;;
18544;SDS011;9402;51.460;7.276;2023-07-24T01:17:32;5.10;;;4.03;;
18544;SDS011;9402;51.460;7.276;2023-07-24T01:19:35;8.17;;;4.23;;
18544;SDS011;9402;51.460;7.276;2023-07-24T01:21:45;6.03;;;4.50;;
18544;SDS011;9402;51.460;7.276;2023-07-24T01:23:55;5.33;;;4.70;;
18544;SDS011;9402;51.460;7.276;2023-07-24T01:26:01;8.50;;;4.73;;
18544;SDS011;9402;51.460;7.276;2023-07-24T01:28:06;5.77;;;4.37;;
18544;SDS011;9402;51.460;7.276;2023-07-24T01:30:08;7.00;;;4.50;;
18544;SDS011;9402;51.460;7.276;2023-07-24T01:32:10;8.10;;;4.50;;
18544;SDS011;9402;51.460;7.276;2023-07-24T01:34:12;5.70;;;4.27;;
18544;SDS011;9402;51.460;7.276;2023-07-24T01:36:13;6.83;;;5.03;;
18544;SDS011;9402;51.460;7.276;2023-07-24T01:38:16;7.40;;;4.83;;
18544;SDS011;9402;51.460;7.276;2023-07-24T01:40:17;4.03;;;3.73;;
18544;SDS011;9402;51.460;7.276;2023-07-24T01:42:21;4.77;;;4.23;;
18544;SDS011;9402;51.460;7.276;2023-07-24T01:44:23;9.53;;;4.50;;
18544;SDS011;9402;51.460;7.276;2023-07-24T01:46:24;6.20;;;4.30;;
18544;SDS011;9402;51.460;7.276;2023-07-24T01:48:25;11.10;;;4.20;;
18544;SDS011;9402;51.460;7.276;2023-07-24T01:50:27;10.77;;;4.07;;
18544;SDS011;9402;51.460;7.276;2023-07-24T01:52:27;6.80;;;5.00;;
18544;SDS011;9402;51.460;7.276;2023-07-24T01:54:29;5.40;;;4.87;;
18544;SDS011;9402;51.460;7.276;2023-07-24T01:56:30;5.83;;;3.77;;
18544;SDS011;9402;51.460;7.276;2023-07-24T01:58:33;7.27;;;4.80;;
18544;SDS011;9402;51.460;7.276;2023-07-24T02:00:35;4.73;;;4.30;;
18544;SDS011;9402;51.460;7.276;2023-07-24T02:02:36;6.57;;;4.40;;
18544;SDS011;9402;51.460;7.276;2023-07-24T02:04:38;10.00;;;4.53;;
18544;SDS011;9402;51.460;7.276;2023-07-24T02:06:40;8.03;;;4.70;;
18544;SDS011;9402;51.460;7.276;2023-07-24T02:08:41;7.60;;;4.20;;
18544;SDS011;9402;51.460;7.276;2023-07-24T02:10:48;8.20;;;4.53;;
18544;SDS011;9402;51.460;7.276;2023-07-24T02:12:51;5.30;;;4.40;;
18544;SDS011;9402;51.460;7.276;2023-07-24T02:14:53;4.90;;;4.37;;
18544;SDS011;9402;51.460;7.276;2023-07-24T02:16:55;9.53;;;4.77;;
18544;SDS011;9402;51.460;7.276;2023-07-24T02:18:57;6.60;;;4.40;;
18544;SDS011;9402;51.460;7.276;2023-07-24T02:20:57;10.30;;;4.70;;
18544;SDS011;9402;51.460;7.276;2023-07-24T02:22:59;5.43;;;4.47;;
18544;SDS011;9402;51.460;7.276;2023-07-24T02:25:00;4.53;;;4.13;;
18544;SDS011;9402;51.460;7.276;2023-07-24T02:27:02;5.83;;;5.13;;
18544;SDS011;9402;51.460;7.276;2023-07-24T02:29:04;7.43;;;4.63;;
18544;SDS011;9402;51.460;7.276;2023-07-24T02:31:07;11.17;;;4.50;;
18544;SDS011;9402;51.460;7.276;2023-07-24T02:33:08;5.37;;;4.37;;
18544;SDS011;9402;51.460;7.276;2023-07-24T02:35:10;5.77;;;4.77;;
18544;SDS011;9402;51.460;7.276;2023-07-24T02:37:12;8.67;;;5.17;;
18544;SDS011;9402;51.460;7.276;2023-07-24T02:39:13;7.40;;;4.67;;
18544;SDS011;9402;51.460;7.276;2023-07-24T02:41:15;7.83;;;4.40;;
18544;SDS011;9402;51.460;7.276;2023-07-24T02:43:15;8.00;;;5.30;;
18544;SDS011;9402;51.460;7.276;2023-07-24T02:45:17;5.60;;;5.10;;
18544;SDS011;9402;51.460;7.276;2023-07-24T02:47:20;8.47;;;4.70;;
18544;SDS011;9402;51.460;7.276;2023-07-24T02:49:20;6.70;;;5.43;;
18544;SDS011;9402;51.460;7.276;2023-07-24T02:51:22;8.30;;;5.20;;
18544;SDS011;9402;51.460;7.276;2023-07-24T02:53:23;7.23;;;5.40;;
18544;SDS011;9402;51.460;7.276;2023-07-24T02:55:25;7.90;;;5.40;;
18544;SDS011;9402;51.460;7.276;2023-07-24T02:57:27;5.70;;;4.77;;
18544;SDS011;9402;51.460;7.276;2023-07-24T02:59:29;5.33;;;4.77;;
18544;SDS011;9402;51.460;7.276;2023-07-24T03:01:31;5.87;;;4.47;;
18544;SDS011;9402;51.460;7.276;2023-07-24T03:03:34;7.53;;;4.47;;
18544;SDS011;9402;51.460;7.276;2023-07-24T03:05:36;14.87;;;5.47;;
18544;SDS011;9402;51.460;7.276;2023-07-24T03:07:37;9.30;;;5.77;;
18544;SDS011;9402;51.460;7.276;2023-07-24T03:09:39;7.30;;;4.73;;
18544;SDS011;9402;51.460;7.276;2023-07-24T03:11:40;7.97;;;5.33;;
18544;SDS011;9402;51.460;7.276;2023-07-24T03:13:42;6.97;;;6.03;;
18544;SDS011;9402;51.460;7.276;2023-07-24T03:15:50;8.80;;;5.57;;
18544;SDS011;9402;51.460;7.276;2023-07-24T03:17:52;12.20;;;6.40;;
18544;SDS011;9402;51.460;7.276;2023-07-24T03:19:55;9.40;;;7.20;;
18544;SDS011;9402;51.460;7.276;2023-07-24T03:21:56;10.20;;;7.17;;
18544;SDS011;9402;51.460;7.276;2023-07-24T03:23:58;13.90;;;7.87;;
18544;SDS011;9402;51.460;7.276;2023-07-24T03:25:59;9.60;;;6.97;;
18544;SDS011;9402;51.460;7.276;2023-07-24T03:28:01;11.67;;;7.30;;
18544;SDS011;9402;51.460;7.276;2023-07-24T03:30:03;9.40;;;7.00;;
18544;SDS011;9402;51.460;7.276;2023-07-24T03:32:05;14.67;;;8.17;;
18544;SDS011;9402;51.460;7.276;2023-07-24T03:34:08;12.10;;;7.90;;
18544;SDS011;9402;51.460;7.276;2023-07-24T03:36:10;11.37;;;7.27;;
18544;SDS011;9402;51.460;7.276;2023-07-24T03:38:12;13.27;;;8.80;;
18544;SDS011;9402;51.460;7.276;2023-07-24T03:40:14;15.03;;;7.00;;
18544;SDS011;9402;51.460;7.276;2023-07-24T03:42:23;8.90;;;7.60;;
18544;SDS011;9402;51.460;7.276;2023-07-24T03:44:26;19.33;;;8.20;;
18544;SDS011;9402;51.460;7.276;2023-07-24T03:46:27;11.87;;;7.80;;
18544;SDS011;9402;51.460;7.276;2023-07-24T03:48:29;10.93;;;6.70;;
18544;SDS011;9402;51.460;7.276;2023-07-24T03:50:30;10.03;;;6.47;;
18544;SDS011;9402;51.460;7.276;2023-07-24T03:52:33;8.97;;;6.83;;
18544;SDS011;9402;51.460;7.276;2023-07-24T03:54:34;9.00;;;6.60;;
18544;SDS011;9402;51.460;7.276;2023-07-24T03:56:36;9.30;;;7.30;;
18544;SDS011;9402;51.460;7.276;2023-07-24T03:58:38;9.13;;;7.40;;
18544;SDS011;9402;51.460;7.276;2023-07-24T04:00:40;16.80;;;7.97;;
18544;SDS011;9402;51.460;7.276;2023-07-24T04:02:41;10.70;;;7.03;;
18544;SDS011;9402;51.460;7.276;2023-07-24T04:04:43;11.23;;;7.30;;
18544;SDS011;9402;51.460;7.276;2023-07-24T04:06:45;9.60;;;6.83;;
18544;SDS011;9402;51.460;7.276;2023-07-24T04:08:48;15.00;;;7.43;;
18544;SDS011;9402;51.460;7.276;2023-07-24T04:10:49;16.20;;;8.57;;
18544;SDS011;9402;51.460;7.276;2023-07-24T04:12:51;12.20;;;7.00;;
18544;SDS011;9402;51.460;7.276;2023-07-24T04:14:52;13.80;;;8.57;;
18544;SDS011;9402;51.460;7.276;2023-07-24T04:16:54;10.90;;;6.80;;
18544;SDS011;9402;51.460;7.276;2023-07-24T04:18:56;16.73;;;7.97;;
18544;SDS011;9402;51.460;7.276;2023-07-24T04:20:57;8.57;;;6.67;;
18544;SDS011;9402;51.460;7.276;2023-07-24T04:22:59;11.27;;;7.67;;
18544;SDS011;9402;51.460;7.276;2023-07-24T04:25:02;8.20;;;6.80;;
18544;SDS011;9402;51.460;7.276;2023-07-24T04:27:04;11.40;;;6.83;;
18544;SDS011;9402;51.460;7.276;2023-07-24T04:29:06;8.87;;;6.20;;
18544;SDS011;9402;51.460;7.276;2023-07-24T04:31:07;12.13;;;7.40;;
18544;SDS011;9402;51.460;7.276;2023-07-24T04:33:09;9.63;;;6.50;;
18544;SDS011;9402;51.460;7.276;2023-07-24T04:35:11;10.03;;;7.10;;
18544;SDS011;9402;51.460;7.276;2023-07-24T04:37:12;13.10;;;7.80;;
18544;SDS011;9402;51.460;7.276;2023-07-24T04:39:14;12.60;;;7.30;;
18544;SDS011;9402;51.460;7.276;2023-07-24T04:41:17;8.60;;;6.53;;
18544;SDS011;9402;51.460;7.276;2023-07-24T04:43:18;14.83;;;7.40;;
18544;SDS011;9402;51.460;7.276;2023-07-24T04:45:20;6.90;;;5.90;;
18544;SDS011;9402;51.460;7.276;2023-07-24T04:47:21;15.00;;;6.93;;
18544;SDS011;9402;51.460;7.276;2023-07-24T04:49:23;10.10;;;6.70;;
18544;SDS011;9402;51.460;7.276;2023-07-24T04:51:24;8.30;;;6.27;;
18544;SDS011;9402;51.460;7.276;2023-07-24T04:53:26;16.80;;;7.23;;
18544;SDS011;9402;51.460;7.276;2023-07-24T04:55:28;12.60;;;8.37;;
18544;SDS011;9402;51.460;7.276;2023-07-24T04:57:31;10.27;;;7.20;;
18544;SDS011;9402;51.460;7.276;2023-07-24T04:59:32;10.03;;;7.10;;
18544;SDS011;9402;51.460;7.276;2023-07-24T05:01:34;10.83;;;7.73;;
18544;SDS011;9402;51.460;7.276;2023-07-24T05:03:35;6.77;;;6.07;;
18544;SDS011;9402;51.460;7.276;2023-07-24T05:05:37;12.63;;;5.83;;
18544;SDS011;9402;51.460;7.276;2023-07-24T05:07:39;13.90;;;7.83;;
18544;SDS011;9402;51.460;7.276;2023-07-24T05:09:40;8.47;;;6.60;;
18544;SDS011;9402;51.460;7.276;2023-07-24T05:11:42;11.07;;;7.50;;
18544;SDS011;9402;51.460;7.276;2023-07-24T05:13:46;15.63;;;7.33;;
18544;SDS011;9402;51.460;7.276;2023-07-24T05:15:47;8.40;;;6.63;;
18544;SDS011;9402;51.460;7.276;2023-07-24T05:17:48;10.50;;;6.97;;
18544;SDS011;9402;51.460;7.276;2023-07-24T05:19:50;13.20;;;7.87;;
18544;SDS011;9402;51.460;7.276;2023-07-24T05:21:51;12.80;;;7.90;;
18544;SDS011;9402;51.460;7.276;2023-07-24T05:23:53;16.80;;;7.73;;
18544;SDS011;9402;51.460;7.276;2023-07-24T05:25:57;10.40;;;7.97;;
18544;SDS011;9402;51.460;7.276;2023-07-24T05:27:59;14.20;;;8.00;;
18544;SDS011;9402;51.460;7.276;2023-07-24T05:30:02;16.80;;;6.67;;
18544;SDS011;9402;51.460;7.276;2023-07-24T05:32:05;10.97;;;6.67;;
18544;SDS011;9402;51.460;7.276;2023-07-24T05:34:07;14.43;;;7.60;;
18544;SDS011;9402;51.460;7.276;2023-07-24T05:36:08;10.97;;;7.20;;
18544;SDS011;9402;51.460;7.276;2023-07-24T05:38:10;10.57;;;7.27;;
18544;SDS011;9402;51.460;7.276;2023-07-24T05:40:12;10.37;;;7.80;;
18544;SDS011;9402;51.460;7.276;2023-07-24T05:42:13;11.07;;;7.33;;
18544;SDS011;9402;51.460;7.276;2023-07-24T05:44:15;9.20;;;7.63;;
18544;SDS011;9402;51.460;7.276;2023-07-24T05:46:18;11.87;;;8.50;;
18544;SDS011;9402;51.460;7.276;2023-07-24T05:48:20;9.50;;;6.87;;
18544;SDS011;9402;51.460;7.276;2023-07-24T05:50:21;11.40;;;7.13;;
18544;SDS011;9402;51.460;7.276;2023-07-24T05:52:23;14.40;;;8.03;;
18544;SDS011;9402;51.460;7.276;2023-07-24T05:54:23;10.77;;;7.90;;
18544;SDS011;9402;51.460;7.276;2023-07-24T05:56:25;22.33;;;8.07;;
18544;SDS011;9402;51.460;7.276;2023-07-24T05:58:27;14.13;;;7.93;;
18544;SDS011;9402;51.460;7.276;2023-07-24T06:00:27;12.93;;;7.50;;
18544;SDS011;9402;51.460;7.276;2023-07-24T06:02:30;16.20;;;7.63;;
18544;SDS011;9402;51.460;7.276;2023-07-24T06:04:32;14.20;;;7.60;;
18544;SDS011;9402;51.460;7.276;2023-07-24T06:06:34;13.30;;;7.30;;
18544;SDS011;9402;51.460;7.276;2023-07-24T06:08:36;10.27;;;7.43;;
18544;SDS011;9402;51.460;7.276;2023-07-24T06:10:38;12.00;;;7.97;;
18544;SDS011;9402;51.460;7.276;2023-07-24T06:12:39;10.80;;;6.47;;
18544;SDS011;9402;51.460;7.276;2023-07-24T06:14:41;8.00;;;6.27;;
18544;SDS011;9402;51.460;7.276;2023-07-24T06:16:43;12.40;;;7.47;;
18544;SDS011;9402;51.460;7.276;2023-07-24T06:18:46;12.80;;;7.10;;
18544;SDS011;9402;51.460;7.276;2023-07-24T06:20:51;8.83;;;6.33;;
18544;SDS011;9402;51.460;7.276;2023-07-24T06:22:53;9.17;;;6.00;;
18544;SDS011;9402;51.460;7.276;2023-07-24T06:24:54;14.70;;;7.30;;
18544;SDS011;9402;51.460;7.276;2023-07-24T06:26:55;13.93;;;7.33;;
18544;SDS011;9402;51.460;7.276;2023-07-24T06:28:57;11.83;;;7.40;;
18544;SDS011;9402;51.460;7.276;2023-07-24T06:30:59;8.87;;;6.77;;
18544;SDS011;9402;51.460;7.276;2023-07-24T06:33:00;12.33;;;7.70;;
18544;SDS011;9402;51.460;7.276;2023-07-24T06:35:03;15.33;;;8.20;;
18544;SDS011;9402;51.460;7.276;2023-07-24T06:37:05;11.40;;;7.40;;
18544;SDS011;9402;51.460;7.276;2023-07-24T06:39:07;12.23;;;7.17;;
18544;SDS011;9402;51.460;7.276;2023-07-24T06:41:09;11.43;;;7.50;;
18544;SDS011;9402;51.460;7.276;2023-07-24T06:43:10;10.20;;;7.57;;
18544;SDS011;9402;51.460;7.276;2023-07-24T06:45:12;13.53;;;6.90;;
18544;SDS011;9402;51.460;7.276;2023-07-24T06:47:12;13.70;;;6.83;;
18544;SDS011;9402;51.460;7.276;2023-07-24T06:49:14;9.50;;;7.53;;
18544;SDS011;9402;51.460;7.276;2023-07-24T06:51:17;16.17;;;7.70;;
18544;SDS011;9402;51.460;7.276;2023-07-24T06:53:19;11.37;;;7.03;;
18544;SDS011;9402;51.460;7.276;2023-07-24T06:55:20;11.77;;;6.80;;
18544;SDS011;9402;51.460;7.276;2023-07-24T06:57:21;11.93;;;7.33;;
18544;SDS011;9402;51.460;7.276;2023-07-24T06:59:23;13.30;;;6.97;;
18544;SDS011;9402;51.460;7.276;2023-07-24T07:01:24;13.80;;;7.13;;
18544;SDS011;9402;51.460;7.276;2023-07-24T07:03:26;9.67;;;6.73;;
18544;SDS011;9402;51.460;7.276;2023-07-24T07:05:26;6.93;;;5.90;;
18544;SDS011;9402;51.460;7.276;2023-07-24T07:07:29;13.83;;;6.67;;
18544;SDS011;9402;51.460;7.276;2023-07-24T07:09:31;8.10;;;6.17;;
18544;SDS011;9402;51.460;7.276;2023-07-24T07:11:32;9.37;;;6.30;;
18544;SDS011;9402;51.460;7.276;2023-07-24T07:13:34;11.27;;;5.87;;
18544;SDS011;9402;51.460;7.276;2023-07-24T07:15:35;10.87;;;6.37;;
18544;SDS011;9402;51.460;7.276;2023-07-24T07:17:37;12.63;;;6.77;;
18544;SDS011;9402;51.460;7.276;2023-07-24T07:19:39;11.03;;;6.83;;
18544;SDS011;9402;51.460;7.276;2023-07-24T07:21:41;12.73;;;6.50;;
18544;SDS011;9402;51.460;7.276;2023-07-24T07:23:44;8.30;;;5.97;;
18544;SDS011;9402;51.460;7.276;2023-07-24T07:25:45;7.33;;;6.60;;
18544;SDS011;9402;51.460;7.276;2023-07-24T07:27:47;8.60;;;5.77;;
18544;SDS011;9402;51.460;7.276;2023-07-24T07:29:48;10.40;;;7.07;;
18544;SDS011;9402;51.460;7.276;2023-07-24T07:31:49;8.40;;;6.57;;
18544;SDS011;9402;51.460;7.276;2023-07-24T07:33:51;6.40;;;5.60;;
18544;SDS011;9402;51.460;7.276;2023-07-24T07:35:52;10.20;;;5.90;;
18544;SDS011;9402;51.460;7.276;2023-07-24T07:37:54;13.57;;;6.97;;
18544;SDS011;9402;51.460;7.276;2023-07-24T07:39:57;23.23;;;6.80;;
18544;SDS011;9402;51.460;7.276;2023-07-24T07:41:58;6.67;;;6.00;;
18544;SDS011;9402;51.460;7.276;2023-07-24T07:44:00;8.87;;;6.00;;
18544;SDS011;9402;51.460;7.276;2023-07-24T07:46:01;7.03;;;5.67;;
18544;SDS011;9402;51.460;7.276;2023-07-24T07:48:02;8.83;;;6.00;;
18544;SDS011;9402;51.460;7.276;2023-07-24T07:50:04;7.40;;;5.60;;
18544;SDS011;9402;51.460;7.276;2023-07-24T07:52:06;8.80;;;5.57;;
18544;SDS011;9402;51.460;7.276;2023-07-24T07:54:08;9.30;;;6.23;;
18544;SDS011;9402;51.460;7.276;2023-07-24T07:56:11;7.60;;;5.73;;
18544;SDS011;9402;51.460;7.276;2023-07-24T07:58:13;9.73;;;6.47;;
18544;SDS011;9402;51.460;7.276;2023-07-24T08:00:15;9.37;;;6.43;;
18544;SDS011;9402;51.460;7.276;2023-07-24T08:02:16;7.70;;;5.73;;
18544;SDS011;9402;51.460;7.276;2023-07-24T08:04:18;10.77;;;6.63;;
18544;SDS011;9402;51.460;7.276;2023-07-24T08:06:20;11.63;;;6.23;;
18544;SDS011;9402;51.460;7.276;2023-07-24T08:08:21;11.30;;;7.07;;
18544;SDS011;9402;51.460;7.276;2023-07-24T08:10:23;9.17;;;6.33;;
18544;SDS011;9402;51.460;7.276;2023-07-24T08:12:26;12.00;;;6.50;;
18544;SDS011;9402;51.460;7.276;2023-07-24T08:14:28;6.60;;;5.90;;
18544;SDS011;9402;51.460;7.276;2023-07-24T08:16:29;8.00;;;5.40;;
18544;SDS011;9402;51.460;7.276;2023-07-24T08:18:31;10.40;;;5.33;;
18544;SDS011;9402;51.460;7.276;2023-07-24T08:20:34;9.63;;;5.43;;
18544;SDS011;9402;51.460;7.276;2023-07-24T08:22:36;7.40;;;5.13;;
18544;SDS011;9402;51.460;7.276;2023-07-24T08:24:38;5.90;;;4.70;;
18544;SDS011;9402;51.460;7.276;2023-07-24T08:26:39;4.73;;;4.30;;
18544;SDS011;9402;51.460;7.276;2023-07-24T08:28:42;7.33;;;4.10;;
18544;SDS011;9402;51.460;7.276;2023-07-24T08:30:43;8.07;;;4.10;;
18544;SDS011;9402;51.460;7.276;2023-07-24T08:32:46;4.60;;;4.00;;
18544;SDS011;9402;51.460;7.276;2023-07-24T08:34:50;5.23;;;4.20;;
18544;SDS011;9402;51.460;7.276;2023-07-24T08:36:51;9.00;;;4.67;;
18544;SDS011;9402;51.460;7.276;2023-07-24T08:38:53;5.30;;;4.27;;
18544;SDS011;9402;51.460;7.276;2023-07-24T08:41:02;5.57;;;4.13;;
18544;SDS011;9402;51.460;7.276;2023-07-24T08:43:04;7.70;;;4.13;;
18544;SDS011;9402;51.460;7.276;2023-07-24T08:45:10;6.67;;;4.40;;
18544;SDS011;9402;51.460;7.276;2023-07-24T08:47:12;7.90;;;3.90;;
18544;SDS011;9402;51.460;7.276;2023-07-24T08:49:15;5.10;;;3.80;;
18544;SDS011;9402;51.460;7.276;2023-07-24T08:51:16;4.50;;;3.77;;
18544;SDS011;9402;51.460;7.276;2023-07-24T08:53:20;4.90;;;3.90;;
18544;SDS011;9402;51.460;7.276;2023-07-24T08:55:21;5.77;;;4.20;;
18544;SDS011;9402;51.460;7.276;2023-07-24T08:57:23;4.27;;;3.87;;
18544;SDS011;9402;51.460;7.276;2023-07-24T08:59:25;8.70;;;4.20;;
18544;SDS011;9402;51.460;7.276;2023-07-24T09:01:28;7.10;;;4.30;;
18544;SDS011;9402;51.460;7.276;2023-07-24T09:03:30;4.00;;;3.57;;
18544;SDS011;9402;51.460;7.276;2023-07-24T09:05:32;8.10;;;4.13;;
18544;SDS011;9402;51.460;7.276;2023-07-24T09:07:33;4.30;;;3.90;;
18544;SDS011;9402;51.460;7.276;2023-07-24T09:09:35;8.93;;;4.60;;
18544;SDS011;9402;51.460;7.276;2023-07-24T09:11:45;4.20;;;3.80;;
18544;SDS011;9402;51.460;7.276;2023-07-24T09:13:47;4.67;;;4.10;;
18544;SDS011;9402;51.460;7.276;2023-07-24T09:15:50;4.20;;;3.83;;
18544;SDS011;9402;51.460;7.276;2023-07-24T09:17:53;4.13;;;3.80;;
18544;SDS011;9402;51.460;7.276;2023-07-24T09:19:55;3.60;;;3.10;;
18544;SDS011;9402;51.460;7.276;2023-07-24T09:22:06;5.10;;;3.23;;
18544;SDS011;9402;51.460;7.276;2023-07-24T09:24:10;5.57;;;4.03;;
18544;SDS011;9402;51.460;7.276;2023-07-24T09:26:12;6.30;;;3.90;;
18544;SDS011;9402;51.460;7.276;2023-07-24T09:28:14;6.83;;;4.20;;
18544;SDS011;9402;51.460;7.276;2023-07-24T09:30:18;5.27;;;3.47;;
18544;SDS011;9402;51.460;7.276;2023-07-24T09:32:24;7.20;;;3.97;;
18544;SDS011;9402;51.460;7.276;2023-07-24T09:34:28;5.27;;;4.07;;
18544;SDS011;9402;51.460;7.276;2023-07-24T09:36:36;3.83;;;3.43;;
18544;SDS011;9402;51.460;7.276;2023-07-24T09:38:39;5.00;;;4.00;;
18544;SDS011;9402;51.460;7.276;2023-07-24T09:40:42;9.90;;;4.27;;
18544;SDS011;9402;51.460;7.276;2023-07-24T09:42:43;5.07;;;4.00;;
18544;SDS011;9402;51.460;7.276;2023-07-24T09:44:45;13.53;;;3.80;;
18544;SDS011;9402;51.460;7.276;2023-07-24T09:46:46;14.27;;;4.13;;
18544;SDS011;9402;51.460;7.276;2023-07-24T09:48:48;4.83;;;3.90;;
18544;SDS011;9402;51.460;7.276;2023-07-24T09:50:52;5.67;;;3.70;;
18544;SDS011;9402;51.460;7.276;2023-07-24T09:52:53;6.83;;;4.03;;
18544;SDS011;9402;51.460;7.276;2023-07-24T09:54:58;5.60;;;3.80;;
18544;SDS011;9402;51.460;7.276;2023-07-24T09:57:02;7.60;;;3.80;;
18544;SDS011;9402;51.460;7.276;2023-07-24T09:59:04;6.30;;;3.67;;
18544;SDS011;9402;51.460;7.276;2023-07-24T10:01:07;5.93;;;3.87;;
18544;SDS011;9402;51.460;7.276;2023-07-24T10:03:09;5.20;;;4.03;;
18544;SDS011;9402;51.460;7.276;2023-07-24T10:05:10;5.00;;;4.20;;
18544;SDS011;9402;51.460;7.276;2023-07-24T10:07:14;6.43;;;4.30;;
18544;SDS011;9402;51.460;7.276;2023-07-24T10:09:16;5.30;;;4.47;;
18544;SDS011;9402;51.460;7.276;2023-07-24T10:11:19;4.50;;;3.40;;
18544;SDS011;9402;51.460;7.276;2023-07-24T10:13:21;5.60;;;4.33;;
18544;SDS011;9402;51.460;7.276;2023-07-24T10:15:23;5.83;;;4.30;;
18544;SDS011;9402;51.460;7.276;2023-07-24T10:17:33;6.00;;;4.63;;
18544;SDS011;9402;51.460;7.276;2023-07-24T10:19:36;31.57;;;5.93;;
18544;SDS011;9402;51.460;7.276;2023-07-24T10:21:43;16.80;;;6.80;;
18544;SDS011;9402;51.460;7.276;2023-07-24T10:23:47;10.43;;;6.20;;
18544;SDS011;9402;51.460;7.276;2023-07-24T10:25:49;10.03;;;6.63;;
18544;SDS011;9402;51.460;7.276;2023-07-24T10:27:52;8.63;;;5.83;;
18544;SDS011;9402;51.460;7.276;2023-07-24T10:29:59;8.67;;;6.33;;
18544;SDS011;9402;51.460;7.276;2023-07-24T10:32:01;8.27;;;5.17;;
18544;SDS011;9402;51.460;7.276;2023-07-24T10:34:06;9.57;;;5.80;;
18544;SDS011;9402;51.460;7.276;2023-07-24T10:36:08;7.73;;;5.47;;
18544;SDS011;9402;51.460;7.276;2023-07-24T10:38:13;8.33;;;6.93;;
18544;SDS011;9402;51.460;7.276;2023-07-24T10:40:20;13.90;;;7.07;;
18544;SDS011;9402;51.460;7.276;2023-07-24T10:42:22;12.73;;;7.90;;
18544;SDS011;9402;51.460;7.276;2023-07-24T10:44:30;8.07;;;5.43;;
18544;SDS011;9402;51.460;7.276;2023-07-24T10:46:35;9.33;;;6.60;;
18544;SDS011;9402;51.460;7.276;2023-07-24T10:48:37;10.10;;;6.40;;
18544;SDS011;9402;51.460;7.276;2023-07-24T10:50:43;8.70;;;6.47;;
18544;SDS011;9402;51.460;7.276;2023-07-24T10:52:44;11.93;;;7.90;;
18544;SDS011;9402;51.460;7.276;2023-07-24T10:54:46;8.60;;;6.90;;
18544;SDS011;9402;51.460;7.276;2023-07-24T10:56:58;8.87;;;6.53;;
18544;SDS011;9402;51.460;7.276;2023-07-24T10:59:04;10.37;;;6.33;;
18544;SDS011;9402;51.460;7.276;2023-07-24T11:01:06;9.33;;;6.83;;
18544;SDS011;9402;51.460;7.276;2023-07-24T11:03:09;11.63;;;7.30;;
18544;SDS011;9402;51.460;7.276;2023-07-24T11:05:11;10.20;;;6.13;;
18544;SDS011;9402;51.460;7.276;2023-07-24T11:07:13;6.83;;;6.13;;
18544;SDS011;9402;51.460;7.276;2023-07-24T11:09:15;9.00;;;6.00;;
18544;SDS011;9402;51.460;7.276;2023-07-24T11:11:16;8.57;;;6.03;;
18544;SDS011;9402;51.460;7.276;2023-07-24T11:13:21;6.30;;;5.00;;
18544;SDS011;9402;51.460;7.276;2023-07-24T11:15:23;10.07;;;7.17;;
18544;SDS011;9402;51.460;7.276;2023-07-24T11:17:33;9.60;;;5.73;;
18544;SDS011;9402;51.460;7.276;2023-07-24T11:19:35;11.13;;;6.17;;
18544;SDS011;9402;51.460;7.276;2023-07-24T11:21:36;7.70;;;5.93;;
18544;SDS011;9402;51.460;7.276;2023-07-24T11:23:44;11.33;;;7.30;;
18544;SDS011;9402;51.460;7.276;2023-07-24T11:25:46;11.10;;;7.23;;
18544;SDS011;9402;51.460;7.276;2023-07-24T11:27:48;11.70;;;6.77;;
18544;SDS011;9402;51.460;7.276;2023-07-24T11:29:51;11.40;;;7.27;;
18544;SDS011;9402;51.460;7.276;2023-07-24T11:31:53;11.17;;;7.03;;
18544;SDS011;9402;51.460;7.276;2023-07-24T11:33:56;13.23;;;7.70;;
18544;SDS011;9402;51.460;7.276;2023-07-24T11:35:58;8.80;;;7.80;;
18544;SDS011;9402;51.460;7.276;2023-07-24T11:38:00;13.17;;;8.90;;
18544;SDS011;9402;51.460;7.276;2023-07-24T11:40:02;15.20;;;10.47;;
18544;SDS011;9402;51.460;7.276;2023-07-24T11:42:09;15.43;;;9.30;;
18544;SDS011;9402;51.460;7.276;2023-07-24T11:44:11;13.20;;;10.00;;
18544;SDS011;9402;51.460;7.276;2023-07-24T11:46:24;12.87;;;8.90;;
18544;SDS011;9402;51.460;7.276;2023-07-24T11:48:26;13.90;;;10.17;;
18544;SDS011;9402;51.460;7.276;2023-07-24T11:50:28;11.47;;;9.97;;
18544;SDS011;9402;51.460;7.276;2023-07-24T11:52:37;15.70;;;9.00;;
18544;SDS011;9402;51.460;7.276;2023-07-24T11:54:40;16.30;;;11.53;;
18544;SDS011;9402;51.460;7.276;2023-07-24T11:56:41;16.50;;;9.60;;
18544;SDS011;9402;51.460;7.276;2023-07-24T11:58:43;11.00;;;9.67;;
18544;SDS011;9402;51.460;7.276;2023-07-24T12:00:45;13.53;;;10.20;;
18544;SDS011;9402;51.460;7.276;2023-07-24T12:02:48;15.07;;;11.43;;
18544;SDS011;9402;51.460;7.276;2023-07-24T12:04:53;22.83;;;12.10;;
18544;SDS011;9402;51.460;7.276;2023-07-24T12:06:56;31.03;;;14.80;;
18544;SDS011;9402;51.460;7.276;2023-07-24T12:09:02;27.20;;;12.60;;
18544;SDS011;9402;51.460;7.276;2023-07-24T12:11:03;15.67;;;11.10;;
18544;SDS011;9402;51.460;7.276;2023-07-24T12:13:04;30.67;;;12.53;;
18544;SDS011;9402;51.460;7.276;2023-07-24T12:15:07;49.47;;;17.57;;
18544;SDS011;9402;51.460;7.276;2023-07-24T12:22:29;8.63;;;5.43;;
18544;SDS011;9402;51.460;7.276;2023-07-24T12:24:30;15.20;;;4.97;;
18544;SDS011;9402;51.460;7.276;2023-07-24T12:26:32;8.23;;;4.90;;
18544;SDS011;9402;51.460;7.276;2023-07-24T12:28:33;8.30;;;5.30;;